Boulder Junction, WI (54512)

9:52 AM CDT on June 26, 2017 (GMT -0500)
Spider Lake Channel | | Change Station

Elev 1621 ft 46.13 °N, 89.81 °W | Updated 10 seconds ago

Overcast
Overcast
48.9 °F
Feels Like 49 °F
N
0.0
Wind Variable Wind from North
Gusts 0.0 mph

Today
High -- | Low -- °F
--% Chance of Precip.
Yesterday
High -- | Low -- °F
Precip. -- in
Pressure 30.06 in
Visibility 10.0 miles
Clouds Scattered Clouds 1100 ft
Mostly Cloudy 1900 ft
Overcast 3200 ft
Windchill 49 °F
Dew Point 48 °F
Humidity 98%
Rainfall 0.05 in
Snow Depth Not available.
5:08 AM 8:53 PM
Waxing Crescent, 9% visible
METAR KD25 261435Z AUTO 33011G18KT 10SM RA SCT011 BKN019 OVC032 08/08 A3006 RMK AO2 P0001 T00830083
Pressure 30.06 in
Visibility 10.0 miles
Clouds Scattered Clouds 1100 ft
Mostly Cloudy 1900 ft
Overcast 3200 ft
Windchill 49 °F
Dew Point 48 °F
Humidity 98%
Rainfall 0.05 in
Snow Depth Not available.
5:08 AM 8:53 PM
Waxing Crescent, 9% visible
METAR KD25 261435Z AUTO 33011G18KT 10SM RA SCT011 BKN019 OVC032 08/08 A3006 RMK AO2 P0001 T00830083

Get Severe Weather Alerts

Thanks for signing up!

Be on the lookout for a verification email in your inbox.

You'll start receiving the daily forecast at 6 AM.

×

10-Day Weather Forecast

Almanac

Astronomy

Jun. 26, 2017 Rise Set
Actual Time
Civil Twilight
Nautical Twilight
Astronomical Twilight
Moon
Length of Visible Light
Length of Day
Tomorrow will be .
, % of the Moon is Illuminated

Today's Extremes

State Highs State Lows

Community

WunderPhotos

Category 6

Welcome to Category 6. This is the collective home for Weather Underground's featured writeups by Dr. Jeff Masters (right), Bob Henson (left), Chris Burt, and other regular contributors.

Nearby

Air Quality

  Air Quality AQ Index Pollutant
Not available.

Snow Depth

Station Depth Elevation

Earthquake Activity

City Distance Mag. Time & Date
Minimum magnitude displayed is 2.5.

Coastal Water Temperatures

Place Temperature

Stations

Nearby Weather Stations

Station Location Temp. Windchill Dew Point Humidity Wind Precip. Elev Updated Type
                   

Watches & Warnings

There are currently no watches in effect.